createdAt,value
2018-09-16T00:00:40.965Z,14.10
2018-09-16T00:01:41.313Z,14.11
2018-09-16T00:02:41.022Z,14.07
2018-09-16T00:03:40.971Z,14.12
2018-09-16T00:04:40.957Z,14.12
2018-09-16T00:05:40.958Z,14.12
2018-09-16T00:06:40.955Z,14.11
2018-09-16T00:07:40.951Z,14.11
2018-09-16T00:08:41.255Z,14.11
2018-09-16T00:09:40.965Z,14.10
2018-09-16T00:10:40.948Z,14.10
2018-09-16T00:11:40.941Z,14.12
2018-09-16T00:12:40.940Z,14.15
2018-09-16T00:13:40.960Z,14.10
2018-09-16T00:14:41.017Z,14.10
2018-09-16T00:15:40.932Z,14.03
2018-09-16T00:16:40.930Z,14.12
2018-09-16T00:17:44.768Z,14.11
2018-09-16T00:18:40.931Z,13.97
2018-09-16T00:19:41.211Z,14.12
2018-09-16T00:20:41.265Z,14.12
2018-09-16T00:21:41.005Z,14.07
2018-09-16T00:22:41.140Z,14.10
2018-09-16T00:23:40.919Z,14.08
2018-09-16T00:24:40.993Z,14.03
2018-09-16T00:25:41.145Z,14.08
2018-09-16T00:26:40.908Z,13.96
2018-09-16T00:27:41.488Z,13.95
2018-09-16T00:28:40.940Z,13.87
2018-09-16T00:29:41.663Z,13.79
2018-09-16T00:30:41.108Z,13.78
2018-09-16T00:31:40.900Z,13.72
2018-09-16T00:32:40.893Z,13.74
2018-09-16T00:33:40.893Z,13.65
2018-09-16T00:34:41.624Z,13.71
2018-09-16T00:35:40.888Z,13.62
2018-09-16T00:36:40.884Z,13.62
2018-09-16T00:37:40.943Z,13.56
2018-09-16T00:38:40.890Z,13.62
2018-09-16T00:39:40.877Z,13.70
2018-09-16T00:40:40.874Z,13.63
2018-09-16T00:41:40.871Z,13.59
2018-09-16T00:42:40.868Z,13.56
2018-09-16T00:43:40.877Z,13.60
2018-09-16T00:44:40.862Z,13.57
2018-09-16T00:45:40.862Z,13.54
2018-09-16T00:46:40.875Z,13.54
2018-09-16T00:47:40.860Z,13.50
2018-09-16T00:48:40.856Z,13.49
2018-09-16T00:49:40.895Z,13.50
2018-09-16T00:50:40.848Z,13.44
2018-09-16T00:51:42.657Z,13.50
2018-09-16T00:52:40.839Z,13.44
2018-09-16T00:53:40.837Z,13.39
2018-09-16T00:54:40.837Z,13.38
2018-09-16T00:55:40.834Z,13.30
2018-09-16T00:56:40.893Z,13.38
2018-09-16T00:57:40.826Z,13.35
2018-09-16T00:58:40.869Z,13.33
2018-09-16T00:59:40.831Z,13.39
2018-09-16T01:00:40.819Z,13.35
2018-09-16T01:01:40.813Z,13.37
2018-09-16T01:02:40.813Z,13.41
2018-09-16T01:03:40.808Z,13.28
2018-09-16T01:04:40.809Z,13.28
2018-09-16T01:05:40.805Z,13.23
2018-09-16T01:06:40.802Z,13.25
2018-09-16T01:07:40.797Z,13.23
2018-09-16T01:08:40.795Z,13.22
2018-09-16T01:09:40.795Z,13.22
2018-09-16T01:10:40.790Z,13.22
2018-09-16T01:11:40.792Z,13.23
2018-09-16T01:12:40.784Z,13.27
2018-09-16T01:13:40.780Z,13.28
2018-09-16T01:14:40.809Z,13.20
2018-09-16T01:15:40.778Z,13.19
2018-09-16T01:16:40.802Z,13.16
2018-09-16T01:17:40.768Z,13.19
2018-09-16T01:18:40.772Z,13.13
2018-09-16T01:19:40.763Z,13.19
2018-09-16T01:20:40.764Z,13.22
2018-09-16T01:21:40.805Z,13.05
2018-09-16T01:22:40.758Z,13.16
2018-09-16T01:23:40.750Z,13.05
2018-09-16T01:24:40.768Z,13.16
2018-09-16T01:25:40.742Z,13.16
2018-09-16T01:26:40.746Z,13.19
2018-09-16T01:27:40.741Z,13.19
2018-09-16T01:28:40.735Z,13.08
2018-09-16T01:29:40.754Z,13.23
2018-09-16T01:30:40.729Z,13.04
2018-09-16T01:31:40.726Z,13.03
2018-09-16T01:32:40.723Z,13.15
2018-09-16T01:33:40.725Z,13.15
2018-09-16T01:34:40.729Z,13.15
2018-09-16T01:35:40.715Z,12.98
2018-09-16T01:36:40.713Z,13.04
2018-09-16T01:37:40.708Z,13.05
2018-09-16T01:38:40.703Z,13.00
2018-09-16T01:39:40.743Z,13.08
2018-09-16T01:40:40.698Z,12.98
2018-09-16T01:41:40.695Z,13.03
2018-09-16T01:42:40.689Z,13.00
2018-09-16T01:43:40.693Z,12.95
2018-09-16T01:44:40.682Z,12.93
2018-09-16T01:45:40.683Z,12.95
2018-09-16T01:46:40.680Z,12.95
2018-09-16T01:47:40.682Z,12.85
2018-09-16T01:48:40.684Z,12.85
2018-09-16T01:49:40.669Z,12.83
2018-09-16T01:50:40.667Z,12.80
2018-09-16T01:51:40.660Z,12.83
2018-09-16T01:52:40.655Z,12.83
2018-09-16T01:53:40.654Z,12.80
2018-09-16T01:54:40.650Z,12.83
2018-09-16T01:55:40.650Z,12.82
2018-09-16T01:56:40.644Z,12.85
2018-09-16T01:57:40.651Z,12.86
2018-09-16T01:58:40.682Z,12.79
2018-09-16T01:59:40.783Z,12.86
2018-09-16T02:00:40.632Z,12.83
2018-09-16T02:01:40.662Z,12.80
2018-09-16T02:02:40.624Z,12.83
2018-09-16T02:03:40.623Z,12.87
2018-09-16T02:04:43.001Z,12.85
2018-09-16T02:05:40.613Z,12.82
2018-09-16T02:06:40.612Z,12.79
2018-09-16T02:07:40.767Z,12.85
2018-09-16T02:08:40.603Z,12.82
2018-09-16T02:09:40.609Z,12.80
2018-09-16T02:10:40.602Z,12.73
2018-09-16T02:11:40.612Z,12.83
2018-09-16T02:12:40.591Z,12.80
2018-09-16T02:13:40.588Z,12.80
2018-09-16T02:14:40.585Z,12.80
2018-09-16T02:15:40.583Z,12.76
2018-09-16T02:16:40.582Z,12.78
2018-09-16T02:17:40.575Z,12.78
2018-09-16T02:18:40.574Z,12.72
2018-09-16T02:19:40.568Z,12.70
2018-09-16T02:20:40.567Z,12.70
2018-09-16T02:21:40.573Z,12.62
2018-09-16T02:22:40.559Z,12.61
2018-09-16T02:23:40.563Z,12.61
2018-09-16T02:24:40.550Z,12.60
2018-09-16T02:25:40.548Z,12.54
2018-09-16T02:26:40.550Z,12.62
2018-09-16T02:27:40.544Z,12.54
2018-09-16T02:28:40.538Z,12.62
2018-09-16T02:29:40.534Z,12.61
2018-09-16T02:30:41.207Z,12.60
2018-09-16T02:31:40.530Z,12.62
2018-09-16T02:32:40.527Z,12.61
2018-09-16T02:33:40.520Z,12.58
2018-09-16T02:34:40.520Z,12.61
2018-09-16T02:35:40.514Z,12.55
2018-09-16T02:36:40.512Z,12.60
2018-09-16T02:37:40.514Z,12.55
2018-09-16T02:38:40.508Z,12.57
2018-09-16T02:39:40.501Z,12.55
2018-09-16T02:40:40.499Z,12.46
2018-09-16T02:41:40.494Z,12.46
2018-09-16T02:42:40.490Z,12.54
2018-09-16T02:43:40.487Z,12.58
2018-09-16T02:44:40.486Z,12.46
2018-09-16T02:45:40.481Z,12.57
2018-09-16T02:46:40.477Z,12.46
2018-09-16T02:47:40.481Z,12.49
2018-09-16T02:48:40.468Z,12.50
2018-09-16T02:49:40.465Z,12.49
2018-09-16T02:50:40.461Z,12.47
2018-09-16T02:51:40.459Z,12.50
2018-09-16T02:52:40.457Z,12.47
2018-09-16T02:53:40.452Z,12.45
2018-09-16T02:54:40.452Z,12.45
2018-09-16T02:55:40.447Z,12.46
2018-09-16T02:56:40.442Z,12.47
2018-09-16T02:57:40.437Z,12.47
2018-09-16T02:58:40.440Z,12.47
2018-09-16T02:59:40.434Z,12.39
2018-09-16T03:00:40.479Z,12.43
2018-09-16T03:01:40.424Z,12.47
2018-09-16T03:02:40.419Z,12.32
2018-09-16T03:03:40.416Z,12.37
2018-09-16T03:04:40.416Z,12.29
2018-09-16T03:05:40.412Z,12.39
2018-09-16T03:06:40.409Z,12.37
2018-09-16T03:07:40.409Z,12.42
2018-09-16T03:08:40.399Z,12.28
2018-09-16T03:09:40.396Z,12.35
2018-09-16T03:10:40.398Z,12.28
2018-09-16T03:11:40.465Z,12.37
2018-09-16T03:12:40.385Z,12.35
2018-09-16T03:13:40.381Z,12.29
2018-09-16T03:14:40.386Z,12.31
2018-09-16T03:15:40.373Z,12.31
2018-09-16T03:16:40.372Z,12.27
2018-09-16T03:17:40.368Z,12.24
2018-09-16T03:18:40.368Z,12.22
2018-09-16T03:19:40.358Z,12.20
2018-09-16T03:20:40.355Z,12.21
2018-09-16T03:21:40.352Z,12.20
2018-09-16T03:22:40.348Z,12.20
2018-09-16T03:23:40.346Z,12.18
2018-09-16T03:24:40.346Z,12.15
2018-09-16T03:25:40.337Z,12.13
2018-09-16T03:26:40.332Z,12.15
2018-09-16T03:27:40.334Z,12.15
2018-09-16T03:28:40.327Z,12.20
2018-09-16T03:29:40.321Z,12.13
2018-09-16T03:30:40.323Z,12.15
2018-09-16T03:31:40.316Z,12.20
2018-09-16T03:32:40.317Z,12.15
2018-09-16T03:33:40.317Z,12.21
2018-09-16T03:34:40.303Z,12.17
2018-09-16T03:35:40.305Z,12.09
2018-09-16T03:36:40.299Z,12.20
2018-09-16T03:37:40.293Z,12.13
2018-09-16T03:38:40.292Z,12.21
2018-09-16T03:39:40.285Z,12.12
2018-09-16T03:40:40.280Z,12.20
2018-09-16T03:41:40.279Z,12.10
2018-09-16T03:42:40.273Z,12.10
2018-09-16T03:43:40.277Z,12.10
2018-09-16T03:44:40.271Z,12.03
2018-09-16T03:45:40.266Z,12.03
2018-09-16T03:46:40.327Z,12.12
2018-09-16T03:47:40.259Z,12.00
2018-09-16T03:48:40.250Z,11.97
2018-09-16T03:49:40.258Z,12.07
2018-09-16T03:50:40.266Z,12.02
2018-09-16T03:51:40.241Z,12.03
2018-09-16T03:52:40.237Z,11.97
2018-09-16T03:53:40.239Z,11.95
2018-09-16T03:54:40.229Z,11.99
2018-09-16T03:55:40.236Z,12.03
2018-09-16T03:56:40.220Z,11.99
2018-09-16T03:57:40.217Z,12.06
2018-09-16T03:58:40.220Z,12.07
2018-09-16T03:59:40.222Z,12.03
2018-09-16T04:00:40.205Z,12.06
2018-09-16T04:01:40.204Z,12.00
2018-09-16T04:02:40.417Z,12.04
2018-09-16T04:03:40.200Z,12.00
2018-09-16T04:04:40.193Z,12.07
2018-09-16T04:05:40.187Z,12.06
2018-09-16T04:06:40.193Z,12.02
2018-09-16T04:07:40.180Z,12.00
2018-09-16T04:08:40.178Z,12.00
2018-09-16T04:09:40.178Z,12.00
2018-09-16T04:10:40.168Z,12.04
2018-09-16T04:11:40.170Z,11.97
2018-09-16T04:12:40.165Z,11.94
2018-09-16T04:13:40.162Z,11.99
2018-09-16T04:14:40.156Z,11.78
2018-09-16T04:15:40.148Z,11.87
2018-09-16T04:16:40.149Z,11.87
2018-09-16T04:17:40.140Z,11.84
2018-09-16T04:18:40.139Z,11.87
2018-09-16T04:19:40.133Z,11.88
2018-09-16T04:20:40.127Z,11.83
2018-09-16T04:21:40.124Z,11.86
2018-09-16T04:22:40.123Z,11.80
2018-09-16T04:23:40.117Z,11.83
2018-09-16T04:24:40.119Z,11.70
2018-09-16T04:25:40.116Z,11.72
2018-09-16T04:26:40.106Z,11.78
2018-09-16T04:27:40.100Z,11.72
2018-09-16T04:28:40.096Z,11.77
2018-09-16T04:29:40.096Z,11.77
2018-09-16T04:30:40.090Z,11.77
2018-09-16T04:31:40.090Z,11.68
2018-09-16T04:32:40.083Z,11.63
2018-09-16T04:33:40.816Z,11.72
2018-09-16T04:34:40.072Z,11.69
2018-09-16T04:35:40.070Z,11.68
2018-09-16T04:36:40.063Z,11.70
2018-09-16T04:37:40.062Z,11.63
2018-09-16T04:38:40.060Z,11.70
2018-09-16T04:39:40.053Z,11.70
2018-09-16T04:40:40.046Z,11.65
2018-09-16T04:41:40.046Z,11.70
2018-09-16T04:42:40.040Z,11.65
2018-09-16T04:43:40.037Z,11.60
2018-09-16T04:44:40.035Z,11.69
2018-09-16T04:45:40.029Z,11.66
2018-09-16T04:46:40.028Z,11.65
2018-09-16T04:47:40.019Z,11.66
2018-09-16T04:48:40.015Z,11.62
2018-09-16T04:49:40.020Z,11.66
2018-09-16T04:50:40.007Z,11.65
2018-09-16T04:51:40.003Z,11.70
2018-09-16T04:52:40.001Z,11.62
2018-09-16T04:53:39.996Z,11.65
2018-09-16T04:54:39.994Z,11.59
2018-09-16T04:55:39.986Z,11.65
2018-09-16T04:56:39.983Z,11.60
2018-09-16T04:57:39.979Z,11.63
2018-09-16T04:58:39.974Z,11.60
2018-09-16T04:59:39.971Z,11.54
2018-09-16T05:00:39.965Z,11.57
2018-09-16T05:01:39.962Z,11.59
2018-09-16T05:02:39.962Z,11.60
2018-09-16T05:03:39.955Z,11.57
2018-09-16T05:04:39.952Z,11.59
2018-09-16T05:05:39.949Z,11.55
2018-09-16T05:06:39.940Z,11.68
2018-09-16T05:07:39.937Z,11.62
2018-09-16T05:08:39.961Z,11.65
2018-09-16T05:09:39.928Z,11.62
2018-09-16T05:10:39.925Z,11.72
2018-09-16T05:11:39.925Z,11.72
2018-09-16T05:12:39.916Z,11.70
2018-09-16T05:13:39.915Z,11.63
2018-09-16T05:14:39.909Z,11.69
2018-09-16T05:15:39.907Z,11.70
2018-09-16T05:16:39.899Z,11.70
2018-09-16T05:17:39.897Z,11.66
2018-09-16T05:18:39.893Z,11.68
2018-09-16T05:19:39.888Z,11.73
2018-09-16T05:20:39.883Z,11.68
2018-09-16T05:21:39.883Z,11.73
2018-09-16T05:22:39.883Z,11.69
2018-09-16T05:23:39.872Z,11.77
2018-09-16T05:24:39.868Z,11.73
2018-09-16T05:25:39.863Z,11.77
2018-09-16T05:26:39.865Z,11.73
2018-09-16T05:27:39.856Z,11.75
2018-09-16T05:28:39.854Z,11.81
2018-09-16T05:29:39.848Z,11.78
2018-09-16T05:30:39.844Z,11.75
2018-09-16T05:31:39.844Z,11.83
2018-09-16T05:32:39.836Z,11.77
2018-09-16T05:33:39.831Z,11.84
2018-09-16T05:34:39.829Z,11.81
2018-09-16T05:35:39.824Z,11.88
2018-09-16T05:36:39.818Z,11.88
2018-09-16T05:37:39.815Z,11.86
2018-09-16T05:38:39.817Z,11.99
2018-09-16T05:39:39.813Z,11.88
2018-09-16T05:40:39.804Z,12.06
2018-09-16T05:41:39.802Z,11.99
2018-09-16T05:42:39.796Z,12.04
2018-09-16T05:43:39.793Z,12.06
2018-09-16T05:44:39.787Z,12.10
2018-09-16T05:45:39.786Z,12.09
2018-09-16T05:46:39.782Z,12.18
2018-09-16T05:47:39.780Z,12.09
2018-09-16T05:48:39.772Z,12.20
2018-09-16T05:49:39.773Z,12.20
2018-09-16T05:50:39.764Z,12.18
2018-09-16T05:51:39.761Z,12.17
2018-09-16T05:52:39.821Z,12.22
2018-09-16T05:53:39.753Z,12.24
2018-09-16T05:54:39.749Z,12.25
2018-09-16T05:55:39.746Z,12.27
2018-09-16T05:56:39.741Z,12.25
2018-09-16T05:57:39.738Z,12.31
2018-09-16T05:58:39.734Z,12.29
2018-09-16T05:59:39.731Z,12.39
2018-09-16T06:00:39.726Z,12.36
2018-09-16T06:01:39.726Z,12.29
2018-09-16T06:02:39.718Z,12.37
2018-09-16T06:03:39.720Z,12.37
2018-09-16T06:04:39.745Z,12.39
2018-09-16T06:05:39.975Z,12.40
2018-09-16T06:06:39.704Z,12.37
2018-09-16T06:07:39.701Z,12.40
2018-09-16T06:08:39.698Z,12.35
2018-09-16T06:09:39.693Z,12.35
2018-09-16T06:10:39.719Z,12.40
2018-09-16T06:11:39.684Z,12.49
2018-09-16T06:12:39.688Z,12.49
2018-09-16T06:13:39.684Z,12.45
2018-09-16T06:14:39.685Z,12.45
2018-09-16T06:15:39.672Z,12.49
2018-09-16T06:16:39.666Z,12.42
2018-09-16T06:17:39.662Z,12.47
2018-09-16T06:18:39.658Z,12.43
2018-09-16T06:19:39.654Z,12.39
2018-09-16T06:20:39.656Z,12.39
2018-09-16T06:21:39.647Z,12.42
2018-09-16T06:22:39.681Z,12.32
2018-09-16T06:23:39.645Z,12.47
2018-09-16T06:24:39.635Z,12.54
2018-09-16T06:25:39.630Z,12.50
2018-09-16T06:26:39.627Z,12.50
2018-09-16T06:27:39.623Z,12.49
2018-09-16T06:28:39.618Z,12.47
2018-09-16T06:29:39.614Z,12.53
2018-09-16T06:30:39.618Z,12.57
2018-09-16T06:31:39.609Z,12.46
2018-09-16T06:32:39.605Z,12.45
2018-09-16T06:33:39.653Z,12.60
2018-09-16T06:34:39.594Z,12.67
2018-09-16T06:35:39.593Z,12.64
2018-09-16T06:36:40.351Z,12.64
2018-09-16T06:37:39.585Z,12.70
2018-09-16T06:38:39.581Z,12.73
2018-09-16T06:39:39.580Z,12.64
2018-09-16T06:40:39.573Z,12.73
2018-09-16T06:41:39.568Z,12.73
2018-09-16T06:42:39.568Z,12.70
2018-09-16T06:43:39.562Z,12.79
2018-09-16T06:44:39.560Z,12.73
2018-09-16T06:45:39.555Z,12.73
2018-09-16T06:46:39.551Z,12.78
2018-09-16T06:47:39.549Z,12.85
2018-09-16T06:48:39.542Z,12.79
2018-09-16T06:49:39.541Z,12.90
2018-09-16T06:50:39.536Z,12.90
2018-09-16T06:51:39.536Z,12.98
2018-09-16T06:52:39.527Z,12.83
2018-09-16T06:53:39.535Z,12.94
2018-09-16T06:54:39.523Z,12.95
2018-09-16T06:55:39.520Z,12.93
2018-09-16T06:56:39.515Z,13.04
2018-09-16T06:57:39.511Z,13.04
2018-09-16T06:58:39.507Z,13.03
2018-09-16T06:59:39.505Z,13.03
2018-09-16T07:00:39.508Z,13.08
2018-09-16T07:01:39.496Z,13.03
2018-09-16T07:02:39.492Z,13.01
2018-09-16T07:03:39.490Z,13.15
2018-09-16T07:04:39.485Z,13.09
2018-09-16T07:05:39.484Z,13.16
2018-09-16T07:06:39.479Z,13.16
2018-09-16T07:07:39.476Z,13.15
2018-09-16T07:08:39.471Z,13.12
2018-09-16T07:09:39.469Z,13.12
2018-09-16T07:10:39.467Z,13.08
2018-09-16T07:11:39.461Z,13.19
2018-09-16T07:12:39.457Z,13.19
2018-09-16T07:13:39.458Z,13.19
2018-09-16T07:14:39.455Z,13.25
2018-09-16T07:15:39.458Z,13.31
2018-09-16T07:16:39.444Z,13.20
2018-09-16T07:17:39.440Z,13.22
2018-09-16T07:18:39.438Z,13.22
2018-09-16T07:19:39.435Z,13.25
2018-09-16T07:20:39.439Z,13.27
2018-09-16T07:21:39.430Z,13.35
2018-09-16T07:22:39.424Z,13.37
2018-09-16T07:23:39.421Z,13.44
2018-09-16T07:24:39.418Z,13.37
2018-09-16T07:25:39.414Z,13.41
2018-09-16T07:26:39.433Z,13.44
2018-09-16T07:27:39.408Z,13.41
2018-09-16T07:28:39.407Z,13.50
2018-09-16T07:29:39.402Z,13.54
2018-09-16T07:30:39.397Z,13.46
2018-09-16T07:31:39.402Z,13.52
2018-09-16T07:32:39.409Z,13.54
2018-09-16T07:33:39.396Z,13.56
2018-09-16T07:34:39.388Z,13.56
2018-09-16T07:35:39.382Z,13.63
2018-09-16T07:36:39.382Z,13.59
2018-09-16T07:37:39.375Z,13.57
2018-09-16T07:38:39.381Z,13.68
2018-09-16T07:39:39.369Z,13.71
2018-09-16T07:40:39.365Z,13.71
2018-09-16T07:41:39.362Z,13.72
2018-09-16T07:42:39.369Z,13.86
2018-09-16T07:43:39.369Z,13.89
2018-09-16T07:44:39.354Z,13.85
2018-09-16T07:45:39.351Z,13.92
2018-09-16T07:46:39.349Z,13.97
2018-09-16T07:47:39.345Z,13.92
2018-09-16T07:48:39.342Z,13.97
2018-09-16T07:49:39.338Z,13.96
2018-09-16T07:50:39.342Z,14.00
2018-09-16T07:51:39.333Z,14.05
2018-09-16T07:52:39.329Z,14.07
2018-09-16T07:53:39.331Z,14.12
2018-09-16T07:54:39.330Z,14.14
2018-09-16T07:55:39.321Z,14.08
2018-09-16T07:56:39.317Z,14.20
2018-09-16T07:57:39.315Z,14.18
2018-09-16T07:58:39.312Z,14.23
2018-09-16T07:59:39.310Z,14.25
2018-09-16T08:00:39.345Z,14.32
2018-09-16T08:01:39.303Z,14.43
2018-09-16T08:02:39.300Z,14.41
2018-09-16T08:03:39.298Z,14.43
2018-09-16T08:04:39.303Z,14.40
2018-09-16T08:05:39.400Z,14.48
2018-09-16T08:06:39.289Z,14.50
2018-09-16T08:07:39.287Z,14.53
2018-09-16T08:08:39.510Z,14.58
2018-09-16T08:09:39.280Z,14.51
2018-09-16T08:10:39.278Z,14.55
2018-09-16T08:11:39.284Z,14.53
2018-09-16T08:12:39.271Z,14.66
2018-09-16T08:13:39.317Z,14.65
2018-09-16T08:14:39.267Z,14.68
2018-09-16T08:15:39.266Z,14.78
2018-09-16T08:16:39.261Z,14.79
2018-09-16T08:17:39.263Z,14.73
2018-09-16T08:18:39.256Z,14.77
2018-09-16T08:19:39.255Z,14.72
2018-09-16T08:20:39.257Z,14.79
2018-09-16T08:21:39.250Z,14.91
2018-09-16T08:22:39.249Z,14.94
2018-09-16T08:23:39.304Z,15.09
2018-09-16T08:24:39.241Z,15.00
2018-09-16T08:25:39.241Z,15.10
2018-09-16T08:26:39.236Z,15.10
2018-09-16T08:27:39.235Z,15.15
2018-09-16T08:28:39.233Z,15.18
2018-09-16T08:29:39.231Z,15.21
2018-09-16T08:30:39.227Z,15.25
2018-09-16T08:31:39.225Z,15.35
2018-09-16T08:32:39.222Z,15.31
2018-09-16T08:33:39.219Z,15.36
2018-09-16T08:34:39.218Z,15.44
2018-09-16T08:35:39.218Z,15.43
2018-09-16T08:36:39.216Z,15.52
2018-09-16T08:37:39.210Z,15.47
2018-09-16T08:38:39.220Z,15.54
2018-09-16T08:39:39.914Z,15.58
2018-09-16T08:40:39.206Z,15.55
2018-09-16T08:41:39.211Z,15.67
2018-09-16T08:42:39.200Z,15.67
2018-09-16T08:43:39.201Z,15.68
2018-09-16T08:44:39.196Z,15.72
2018-09-16T08:45:39.229Z,15.76
2018-09-16T08:46:39.195Z,15.83
2018-09-16T08:47:39.191Z,15.84
2018-09-16T08:48:39.195Z,15.88
2018-09-16T08:49:39.187Z,15.95
2018-09-16T08:50:39.271Z,15.97
2018-09-16T08:51:39.183Z,16.01
2018-09-16T08:52:39.183Z,16.02
2018-09-16T08:53:39.181Z,16.08
2018-09-16T08:54:39.177Z,16.12
2018-09-16T08:55:39.179Z,16.17
2018-09-16T08:56:39.174Z,16.24
2018-09-16T08:57:39.175Z,16.26
2018-09-16T08:58:39.171Z,16.39
2018-09-16T08:59:39.170Z,16.42
2018-09-16T09:00:39.173Z,16.43
2018-09-16T09:01:39.167Z,16.42
2018-09-16T09:02:39.165Z,16.53
2018-09-16T09:03:39.166Z,16.57
2018-09-16T09:04:39.161Z,16.69
2018-09-16T09:05:39.160Z,16.72
2018-09-16T09:06:39.163Z,16.68
2018-09-16T09:07:39.157Z,16.72
2018-09-16T09:08:39.161Z,16.74
2018-09-16T09:09:39.156Z,16.76
2018-09-16T09:10:39.159Z,16.87
2018-09-16T09:11:39.152Z,16.87
2018-09-16T09:12:39.153Z,16.97
2018-09-16T09:13:39.149Z,17.05
2018-09-16T09:14:39.149Z,17.08
2018-09-16T09:15:39.148Z,17.01
2018-09-16T09:16:39.145Z,17.09
2018-09-16T09:17:39.146Z,17.14
2018-09-16T09:18:39.143Z,17.23
2018-09-16T09:19:39.145Z,17.20
2018-09-16T09:20:39.140Z,17.27
2018-09-16T09:21:39.139Z,17.27
2018-09-16T09:22:39.139Z,17.34
2018-09-16T09:23:39.138Z,17.36
2018-09-16T09:24:39.136Z,17.41
2018-09-16T09:25:39.134Z,17.36
2018-09-16T09:26:39.132Z,17.52
2018-09-16T09:27:39.133Z,17.51
2018-09-16T09:28:39.134Z,17.57
2018-09-16T09:29:39.129Z,17.57
2018-09-16T09:30:39.133Z,17.63
2018-09-16T09:31:39.130Z,17.59
2018-09-16T09:32:39.126Z,17.59
2018-09-16T09:33:39.131Z,17.67
2018-09-16T09:34:39.130Z,17.68
2018-09-16T09:35:39.200Z,17.79
2018-09-16T09:36:39.130Z,17.78
2018-09-16T09:37:39.124Z,17.78
2018-09-16T09:38:39.120Z,17.80
2018-09-16T09:39:39.121Z,17.86
2018-09-16T09:40:39.118Z,17.86
2018-09-16T09:41:39.120Z,17.97
2018-09-16T09:42:39.136Z,17.95
2018-09-16T09:43:39.118Z,17.98
2018-09-16T09:44:39.126Z,18.08
2018-09-16T09:45:39.115Z,18.10
2018-09-16T09:46:39.114Z,18.10
2018-09-16T09:47:39.122Z,18.15
2018-09-16T09:48:39.113Z,18.26
2018-09-16T09:49:39.114Z,18.15
2018-09-16T09:50:39.113Z,18.26
2018-09-16T09:51:39.112Z,18.26
2018-09-16T09:52:39.132Z,18.25
2018-09-16T09:53:39.113Z,18.31
2018-09-16T09:54:39.110Z,18.33
2018-09-16T09:55:39.111Z,18.38
2018-09-16T09:56:39.109Z,18.38
2018-09-16T09:57:39.111Z,18.40
2018-09-16T09:58:39.115Z,18.37
2018-09-16T09:59:39.110Z,18.44
2018-09-16T10:00:39.109Z,18.43
2018-09-16T10:01:39.113Z,18.50
2018-09-16T10:02:39.107Z,18.59
2018-09-16T10:03:39.107Z,18.50
2018-09-16T10:04:39.107Z,18.56
2018-09-16T10:05:39.106Z,18.58
2018-09-16T10:06:39.107Z,18.65
2018-09-16T10:07:39.108Z,18.58
2018-09-16T10:08:39.105Z,18.68
2018-09-16T10:09:39.105Z,18.80
2018-09-16T10:10:39.105Z,18.78
2018-09-16T10:11:39.107Z,18.77
2018-09-16T10:12:39.110Z,18.84
2018-09-16T10:13:39.105Z,18.81
2018-09-16T10:14:39.105Z,18.86
2018-09-16T10:15:39.104Z,18.90
2018-09-16T10:16:39.104Z,18.92
2018-09-16T10:17:39.109Z,19.07
2018-09-16T10:18:39.104Z,19.14
2018-09-16T10:19:39.105Z,19.12
2018-09-16T10:20:39.103Z,19.15
2018-09-16T10:21:39.108Z,19.19
2018-09-16T10:22:39.134Z,19.29
2018-09-16T10:23:39.105Z,19.37
2018-09-16T10:24:39.108Z,19.39
2018-09-16T10:25:39.108Z,19.48
2018-09-16T10:26:39.104Z,19.47
2018-09-16T10:27:39.109Z,19.49
2018-09-16T10:28:39.132Z,19.51
2018-09-16T10:29:39.108Z,19.51
2018-09-16T10:30:39.107Z,19.55
2018-09-16T10:31:39.105Z,19.63
2018-09-16T10:32:39.105Z,19.74
2018-09-16T10:33:39.118Z,19.79
2018-09-16T10:34:39.106Z,19.86
2018-09-16T10:35:39.107Z,19.91
2018-09-16T10:36:39.105Z,19.84
2018-09-16T10:37:39.107Z,20.02
2018-09-16T10:38:39.218Z,19.99
2018-09-16T10:39:39.120Z,19.99
2018-09-16T10:40:39.116Z,20.07
2018-09-16T10:41:39.119Z,20.11
2018-09-16T10:42:39.449Z,20.11
2018-09-16T10:43:39.109Z,20.19
2018-09-16T10:44:39.111Z,20.21
2018-09-16T10:45:39.109Z,20.13
2018-09-16T10:46:39.113Z,20.09
2018-09-16T10:47:39.119Z,20.13
2018-09-16T10:48:39.112Z,20.11
2018-09-16T10:49:39.114Z,20.11
2018-09-16T10:50:39.121Z,20.09
2018-09-16T10:51:39.114Z,20.10
2018-09-16T10:52:39.114Z,20.22
2018-09-16T10:53:39.116Z,20.22
2018-09-16T10:54:39.118Z,20.36
2018-09-16T10:55:39.118Z,20.40
2018-09-16T10:56:39.121Z,20.29
2018-09-16T10:57:39.121Z,20.36
2018-09-16T10:58:39.117Z,20.36
2018-09-16T10:59:39.127Z,20.34
2018-09-16T11:00:39.121Z,20.41
2018-09-16T11:01:39.119Z,20.48
2018-09-16T11:02:39.122Z,20.43
2018-09-16T11:03:39.121Z,20.48
2018-09-16T11:04:39.122Z,20.52
2018-09-16T11:05:39.130Z,20.63
2018-09-16T11:06:39.130Z,20.59
2018-09-16T11:07:39.125Z,20.55
2018-09-16T11:08:39.124Z,20.69
2018-09-16T11:09:39.126Z,20.60
2018-09-16T11:10:39.126Z,20.65
2018-09-16T11:11:39.127Z,20.75
2018-09-16T11:12:39.130Z,20.78
2018-09-16T11:13:39.852Z,20.72
2018-09-16T11:14:39.261Z,20.75
2018-09-16T11:15:39.182Z,20.81
2018-09-16T11:16:39.132Z,20.75
2018-09-16T11:17:39.149Z,20.70
2018-09-16T11:18:39.160Z,20.87
2018-09-16T11:19:39.139Z,20.93
2018-09-16T11:20:39.136Z,20.96
2018-09-16T11:21:39.136Z,21.00
2018-09-16T11:22:39.177Z,21.09
2018-09-16T11:23:39.140Z,21.07
2018-09-16T11:24:39.140Z,21.17
2018-09-16T11:25:39.199Z,20.99
2018-09-16T11:26:39.144Z,21.02
2018-09-16T11:27:39.146Z,21.07
2018-09-16T11:28:39.146Z,21.05
2018-09-16T11:29:39.146Z,21.20
2018-09-16T11:30:39.145Z,21.25
2018-09-16T11:31:39.147Z,21.27
2018-09-16T11:32:39.153Z,21.30
2018-09-16T11:33:39.154Z,21.30
2018-09-16T11:34:39.181Z,21.32
2018-09-16T11:35:39.196Z,21.29
2018-09-16T11:36:39.211Z,21.29
2018-09-16T11:37:39.157Z,21.30
2018-09-16T11:38:39.188Z,21.29
2018-09-16T11:39:39.622Z,21.27
2018-09-16T11:40:39.162Z,21.36
2018-09-16T11:41:39.162Z,21.36
2018-09-16T11:42:39.168Z,21.37
2018-09-16T11:43:39.587Z,21.50
2018-09-16T11:44:39.164Z,21.50
2018-09-16T11:45:39.211Z,21.57
2018-09-16T11:46:39.195Z,21.55
2018-09-16T11:47:39.193Z,21.57
2018-09-16T11:48:39.170Z,21.48
2018-09-16T11:49:39.174Z,21.46
2018-09-16T11:50:39.177Z,21.45
2018-09-16T11:51:39.200Z,21.45
2018-09-16T11:52:39.176Z,21.50
2018-09-16T11:53:39.177Z,21.55
2018-09-16T11:54:39.181Z,21.67
2018-09-16T11:55:39.184Z,21.64
2018-09-16T11:56:39.182Z,21.64
2018-09-16T11:57:39.204Z,21.61
2018-09-16T11:58:39.280Z,21.61
2018-09-16T11:59:42.848Z,21.62
2018-09-16T12:00:39.187Z,21.61
2018-09-16T12:01:39.190Z,21.64
2018-09-16T12:02:39.195Z,21.66
2018-09-16T12:03:39.202Z,21.75
2018-09-16T12:04:39.202Z,21.85
2018-09-16T12:05:39.198Z,21.89
2018-09-16T12:06:39.198Z,21.93
2018-09-16T12:07:39.202Z,22.00
2018-09-16T12:08:39.205Z,22.17
2018-09-16T12:09:39.203Z,22.20
2018-09-16T12:10:39.206Z,22.15
2018-09-16T12:11:39.240Z,22.18
2018-09-16T12:12:39.208Z,22.23
2018-09-16T12:13:39.215Z,22.23
2018-09-16T12:14:39.212Z,22.25
2018-09-16T12:15:39.214Z,22.26
2018-09-16T12:16:39.252Z,22.20
2018-09-16T12:17:39.221Z,22.17
2018-09-16T12:18:39.219Z,22.23
2018-09-16T12:19:39.239Z,22.23
2018-09-16T12:20:39.233Z,22.14
2018-09-16T12:21:39.226Z,22.11
2018-09-16T12:22:39.229Z,22.14
2018-09-16T12:23:39.233Z,22.15
2018-09-16T12:24:39.229Z,22.14
2018-09-16T12:25:39.240Z,22.20
2018-09-16T12:26:39.236Z,22.23
2018-09-16T12:27:39.236Z,22.17
2018-09-16T12:28:39.236Z,22.20
2018-09-16T12:29:39.240Z,22.26
2018-09-16T12:30:39.256Z,22.35
2018-09-16T12:31:39.242Z,22.44
2018-09-16T12:32:39.256Z,22.44
2018-09-16T12:33:39.251Z,22.43
2018-09-16T12:34:39.252Z,22.35
2018-09-16T12:35:39.256Z,22.38
2018-09-16T12:36:39.258Z,22.32
2018-09-16T12:37:41.327Z,22.41
2018-09-16T12:38:41.339Z,22.38
2018-09-16T12:39:41.828Z,22.44
2018-09-16T12:40:39.276Z,22.53
2018-09-16T12:41:40.823Z,22.53
2018-09-16T12:42:39.266Z,22.55
2018-09-16T12:43:44.817Z,22.69
2018-09-16T12:44:39.271Z,22.65
2018-09-16T12:45:39.270Z,22.72
2018-09-16T12:46:39.273Z,22.76
2018-09-16T12:47:39.277Z,22.78
2018-09-16T12:48:39.319Z,22.72
2018-09-16T12:49:39.308Z,22.69
2018-09-16T12:50:39.322Z,22.63
2018-09-16T12:51:39.294Z,22.55
2018-09-16T12:52:39.291Z,22.51